createdAt,value
2022-11-15T00:01:35.666Z,60.21
2022-11-15T00:05:55.700Z,59.50
2022-11-15T00:10:14.508Z,59.92
2022-11-15T00:14:33.241Z,60.25
2022-11-15T00:18:55.015Z,60.46
2022-11-15T00:23:14.271Z,60.95
2022-11-15T00:27:33.038Z,61.10
2022-11-15T00:31:51.440Z,61.11
2022-11-15T00:36:14.114Z,61.24
2022-11-15T00:40:33.548Z,61.02
2022-11-15T00:44:52.265Z,60.93
2022-11-15T00:49:10.749Z,59.94
2022-11-15T00:53:32.389Z,60.56
2022-11-15T00:57:51.412Z,60.50
2022-11-15T01:02:10.194Z,60.45
2022-11-15T01:06:29.011Z,60.77
2022-11-15T01:10:50.200Z,60.29
2022-11-15T01:15:10.628Z,60.23
2022-11-15T01:19:29.367Z,59.58
2022-11-15T01:23:48.622Z,60.14
2022-11-15T01:28:09.913Z,60.29
2022-11-15T01:32:28.418Z,60.02
2022-11-15T01:36:47.227Z,59.85
2022-11-15T01:41:06.532Z,59.94
2022-11-15T01:45:28.008Z,60.27
2022-11-15T01:49:57.089Z,60.31
2022-11-15T01:54:22.864Z,59.79
2022-11-15T01:58:44.957Z,59.71
2022-11-15T02:03:06.780Z,59.35
2022-11-15T02:07:28.847Z,59.43
2022-11-15T02:11:50.424Z,59.65
2022-11-15T02:16:22.279Z,60.05
2022-11-15T02:21:21.223Z,60.12
2022-11-15T02:25:53.522Z,59.96
2022-11-15T02:30:30.025Z,60.75
2022-11-15T02:34:58.827Z,60.63
2022-11-15T02:39:29.313Z,60.69
2022-11-15T02:44:00.762Z,60.64
2022-11-15T02:48:25.109Z,61.09
2022-11-15T02:52:43.754Z,61.10
2022-11-15T02:57:07.783Z,60.80
2022-11-15T03:01:45.334Z,61.07
2022-11-15T03:06:24.557Z,61.30
2022-11-15T03:10:56.085Z,61.09
2022-11-15T03:15:23.637Z,61.24
2022-11-15T03:19:49.414Z,61.11
2022-11-15T03:24:12.617Z,62.16
2022-11-15T03:28:42.992Z,62.39
2022-11-15T03:33:07.130Z,61.88
2022-11-15T03:37:34.479Z,61.88
2022-11-15T03:42:07.965Z,61.61
2022-11-15T03:46:33.024Z,62.04
2022-11-15T03:50:52.620Z,62.74
2022-11-15T03:55:16.564Z,63.38
2022-11-15T03:59:38.083Z,63.42
2022-11-15T04:03:56.752Z,64.13
2022-11-15T04:08:15.265Z,63.62
2022-11-15T04:12:37.325Z,63.24
2022-11-15T04:16:58.404Z,62.70
2022-11-15T04:21:29.281Z,62.33
2022-11-15T04:25:50.320Z,62.06
2022-11-15T04:30:11.849Z,61.84
2022-11-15T04:34:33.770Z,61.70
2022-11-15T04:38:52.384Z,61.87
2022-11-15T04:43:11.190Z,61.80
2022-11-15T04:47:31.502Z,61.58
2022-11-15T04:51:52.621Z,61.87
2022-11-15T04:56:11.421Z,61.71
2022-11-15T05:00:31.763Z,61.48
2022-11-15T05:04:50.215Z,61.83
2022-11-15T05:09:11.595Z,62.07
2022-11-15T05:13:30.546Z,61.98
2022-11-15T05:17:49.916Z,61.94
2022-11-15T05:22:08.676Z,62.23
2022-11-15T05:26:30.139Z,62.00
2022-11-15T05:30:48.545Z,62.09
2022-11-15T05:35:12.854Z,62.26
2022-11-15T05:39:31.563Z,61.90
2022-11-15T05:43:54.200Z,61.85
2022-11-15T05:48:14.650Z,61.91
2022-11-15T05:52:39.981Z,62.24
2022-11-15T05:56:58.672Z,62.56
2022-11-15T06:01:19.889Z,62.31
2022-11-15T06:05:39.160Z,62.24
2022-11-15T06:09:58.104Z,62.02
2022-11-15T06:14:16.758Z,61.88
2022-11-15T06:18:40.202Z,61.58
2022-11-15T06:23:01.876Z,62.00
2022-11-15T06:27:20.464Z,61.72
2022-11-15T06:31:39.353Z,62.17
2022-11-15T06:36:05.163Z,62.93
2022-11-15T06:40:23.818Z,63.31
2022-11-15T06:44:42.764Z,64.18
2022-11-15T06:49:05.285Z,62.83
2022-11-15T06:53:32.082Z,62.80
2022-11-15T06:57:52.347Z,62.41
2022-11-15T07:02:16.187Z,62.54
2022-11-15T07:06:34.971Z,62.57
2022-11-15T07:11:11.570Z,62.67
2022-11-15T07:15:34.275Z,62.88
2022-11-15T07:19:53.140Z,62.55
2022-11-15T07:24:12.202Z,61.69
2022-11-15T07:28:34.267Z,63.17
2022-11-15T07:32:58.707Z,62.52
2022-11-15T07:37:18.104Z,62.93
2022-11-15T07:41:38.379Z,63.02
2022-11-15T07:46:03.064Z,63.04
2022-11-15T07:50:23.474Z,63.99
2022-11-15T07:54:42.944Z,63.65
2022-11-15T07:59:06.316Z,62.19
2022-11-15T08:03:31.311Z,61.15
2022-11-15T08:07:52.696Z,61.53
2022-11-15T08:12:11.772Z,59.46
2022-11-15T08:16:30.565Z,59.00
2022-11-15T08:20:51.619Z,57.62
2022-11-15T08:25:11.650Z,58.56
2022-11-15T08:29:30.723Z,56.37
2022-11-15T08:33:49.992Z,55.93
2022-11-15T08:38:12.376Z,56.42
2022-11-15T08:42:31.398Z,54.96
2022-11-15T08:46:50.413Z,54.08
2022-11-15T08:51:20.970Z,54.14
2022-11-15T08:55:44.882Z,53.07
2022-11-15T09:00:05.002Z,51.78
2022-11-15T09:04:24.655Z,51.57
2022-11-15T09:08:47.822Z,50.87
2022-11-15T09:13:15.396Z,49.66
2022-11-15T09:17:35.527Z,48.54
2022-11-15T09:21:54.882Z,47.90
2022-11-15T09:26:15.307Z,47.64
2022-11-15T09:30:37.797Z,47.25
2022-11-15T09:46:49.878Z,45.97
2022-11-15T09:52:04.002Z,46.13
2022-11-15T09:56:34.250Z,45.63
2022-11-15T10:00:48.031Z,45.67
2022-11-15T10:04:55.443Z,45.47
2022-11-15T10:09:03.673Z,44.96
2022-11-15T10:13:04.392Z,44.40
2022-11-15T10:17:52.316Z,43.46
2022-11-15T10:22:12.790Z,43.31
2022-11-15T10:26:19.914Z,42.03
2022-11-15T10:30:26.203Z,41.47
2022-11-15T10:34:30.652Z,41.27
2022-11-15T10:38:34.099Z,40.18
2022-11-15T10:42:34.643Z,39.53
2022-11-15T10:46:46.760Z,39.20
2022-11-15T10:50:50.736Z,38.54
2022-11-15T10:54:59.615Z,39.08
2022-11-15T10:59:05.623Z,38.01
2022-11-15T11:03:33.803Z,38.20
2022-11-15T11:07:45.497Z,37.94
2022-11-15T11:11:54.781Z,37.74
2022-11-15T11:16:10.090Z,37.89
2022-11-15T11:20:23.636Z,38.25
2022-11-15T11:24:37.501Z,38.44
2022-11-15T11:28:54.769Z,37.12
2022-11-15T11:33:12.165Z,36.03
2022-11-15T11:37:24.514Z,35.75
2022-11-15T11:41:46.960Z,35.10
2022-11-15T11:46:17.330Z,35.71
2022-11-15T11:50:23.145Z,35.60
2022-11-15T11:54:34.827Z,35.16
2022-11-15T11:58:42.287Z,33.91
2022-11-15T12:02:51.656Z,33.53
2022-11-15T12:06:57.254Z,32.54
2022-11-15T12:11:11.027Z,31.39
2022-11-15T12:15:20.226Z,30.50
2022-11-15T12:19:22.894Z,31.20
2022-11-15T12:23:30.379Z,30.91
2022-11-15T12:27:40.430Z,32.18
2022-11-15T12:31:45.750Z,30.89
2022-11-15T12:36:02.054Z,30.33
2022-11-15T12:40:24.749Z,30.45
2022-11-15T12:45:02.756Z,31.58
2022-11-15T12:49:05.536Z,32.14
2022-11-15T12:53:41.231Z,32.22
2022-11-15T12:57:56.998Z,31.87
2022-11-15T13:02:04.634Z,31.43
2022-11-15T13:06:14.548Z,30.39
2022-11-15T13:10:38.019Z,30.31
2022-11-15T13:14:56.738Z,30.54
2022-11-15T13:19:02.022Z,28.81
2022-11-15T13:23:13.745Z,29.10
2022-11-15T13:27:26.542Z,29.70
2022-11-15T13:31:40.016Z,31.01
2022-11-15T13:35:45.311Z,31.87
2022-11-15T13:39:46.830Z,32.23
2022-11-15T13:43:51.800Z,33.65
2022-11-15T13:48:01.690Z,34.12
2022-11-15T13:52:05.252Z,34.23
2022-11-15T13:56:09.339Z,34.71
2022-11-15T14:00:37.001Z,36.27
2022-11-15T14:04:54.705Z,37.19
2022-11-15T14:09:44.156Z,37.65
2022-11-15T14:14:06.555Z,36.49
2022-11-15T14:18:11.446Z,35.75
2022-11-15T14:22:27.294Z,35.33
2022-11-15T14:26:39.539Z,34.58
2022-11-15T14:30:43.889Z,33.48
2022-11-15T14:34:48.748Z,33.26
2022-11-15T14:38:56.532Z,33.75
2022-11-15T14:42:57.111Z,35.43
2022-11-15T14:47:00.699Z,36.63
2022-11-15T14:51:06.671Z,37.25
2022-11-15T14:55:22.917Z,36.31
2022-11-15T14:59:23.929Z,36.70
2022-11-15T15:03:26.370Z,37.16
2022-11-15T15:07:31.780Z,38.45
2022-11-15T15:11:36.394Z,40.16
2022-11-15T15:15:40.509Z,40.95
2022-11-15T15:19:41.326Z,41.88
2022-11-15T15:23:45.529Z,42.66
2022-11-15T15:27:45.614Z,43.51
2022-11-15T15:31:45.749Z,44.46
2022-11-15T15:35:46.328Z,45.21
2022-11-15T15:39:49.098Z,45.68
2022-11-15T15:43:49.480Z,46.76
2022-11-15T15:47:51.138Z,47.49
2022-11-15T15:51:51.214Z,47.76
2022-11-15T15:55:53.947Z,48.97
2022-11-15T15:59:54.113Z,49.31
2022-11-15T16:03:54.318Z,50.35
2022-11-15T16:07:54.818Z,51.27
2022-11-15T16:11:57.522Z,53.21
2022-11-15T16:15:59.016Z,53.55
2022-11-15T16:19:59.099Z,53.52
2022-11-15T16:23:59.232Z,54.14
2022-11-15T16:28:01.931Z,54.25
2022-11-15T16:32:02.291Z,54.27
2022-11-15T16:36:02.634Z,54.21
2022-11-15T16:40:02.755Z,55.04
2022-11-15T16:44:05.432Z,55.47
2022-11-15T16:48:06.157Z,55.20
2022-11-15T16:52:08.022Z,55.26
2022-11-15T16:56:21.016Z,55.33
2022-11-15T17:00:24.967Z,55.65
2022-11-15T17:04:27.786Z,56.48
2022-11-15T17:08:28.745Z,57.08
2022-11-15T17:12:31.049Z,56.63
2022-11-15T17:16:35.278Z,57.39
2022-11-15T17:20:36.015Z,57.48
2022-11-15T17:24:36.349Z,59.40
2022-11-15T17:28:37.692Z,58.31
2022-11-15T17:32:42.030Z,58.29
2022-11-15T17:36:42.125Z,57.75
2022-11-15T17:40:42.253Z,57.99
2022-11-15T17:44:42.296Z,57.47
2022-11-15T17:48:45.013Z,57.29
2022-11-15T17:52:45.376Z,57.08
2022-11-15T17:56:45.595Z,56.98
2022-11-15T18:00:45.717Z,56.25
2022-11-15T18:04:48.397Z,56.02
2022-11-15T18:08:51.004Z,55.59
2022-11-15T18:12:51.145Z,57.00
2022-11-15T18:16:51.838Z,56.38
2022-11-15T18:21:04.335Z,55.64
2022-11-15T18:25:04.500Z,55.05
2022-11-15T18:29:07.477Z,54.90
2022-11-15T18:33:07.572Z,55.18
2022-11-15T18:37:10.563Z,55.72
2022-11-15T18:41:14.005Z,56.05
2022-11-15T18:45:14.609Z,56.32
2022-11-15T18:49:19.752Z,56.20
2022-11-15T18:53:22.760Z,55.97
2022-11-15T18:57:23.023Z,56.20
2022-11-15T19:01:26.220Z,56.50
2022-11-15T19:05:26.396Z,57.27
2022-11-15T19:09:32.908Z,56.78
2022-11-15T19:13:33.657Z,56.88
2022-11-15T19:17:37.055Z,57.31
2022-11-15T19:21:38.405Z,57.83
2022-11-15T19:25:41.196Z,57.68
2022-11-15T19:29:41.987Z,58.74
2022-11-15T19:33:44.096Z,59.48
2022-11-15T19:37:44.221Z,60.86
2022-11-15T19:41:48.348Z,60.19
2022-11-15T19:46:01.038Z,60.13
2022-11-15T19:50:02.502Z,59.92
2022-11-15T19:54:06.804Z,58.89
2022-11-15T19:58:09.843Z,59.81
2022-11-15T20:02:11.718Z,58.98
2022-11-15T20:06:15.758Z,59.10
2022-11-15T20:10:19.688Z,59.32
2022-11-15T20:14:24.212Z,60.40
2022-11-15T20:18:26.870Z,60.09
2022-11-15T20:22:28.993Z,60.24
2022-11-15T20:26:30.356Z,59.87
2022-11-15T20:30:33.116Z,59.40
2022-11-15T20:34:33.248Z,59.02
2022-11-15T20:38:35.229Z,59.01
2022-11-15T20:42:35.645Z,59.51
2022-11-15T20:46:38.330Z,59.17
2022-11-15T20:50:43.266Z,58.97
2022-11-15T20:54:43.818Z,58.99
2022-11-15T20:58:45.808Z,58.68
2022-11-15T21:02:48.568Z,58.65
2022-11-15T21:06:49.090Z,58.85
2022-11-15T21:11:07.637Z,59.10
2022-11-15T21:15:12.257Z,58.84
2022-11-15T21:19:15.547Z,59.02
2022-11-15T21:23:15.680Z,59.42
2022-11-15T21:27:15.839Z,59.53
2022-11-15T21:31:15.984Z,59.33
2022-11-15T21:35:18.830Z,59.44
2022-11-15T21:39:19.382Z,59.84
2022-11-15T21:43:19.879Z,59.57
2022-11-15T21:47:19.956Z,59.34
2022-11-15T21:51:22.733Z,59.08
2022-11-15T21:55:22.863Z,58.84
2022-11-15T21:59:23.194Z,58.70
2022-11-15T22:03:23.319Z,58.81
2022-11-15T22:07:26.024Z,58.54
2022-11-15T22:11:26.548Z,59.20
2022-11-15T22:15:26.629Z,59.01
2022-11-15T22:19:26.914Z,59.03
2022-11-15T22:23:31.763Z,58.79
2022-11-15T22:27:32.101Z,59.34
2022-11-15T22:31:32.627Z,59.49
2022-11-15T22:35:32.871Z,60.10
2022-11-15T22:39:35.863Z,60.10
2022-11-15T22:43:36.763Z,60.97
2022-11-15T22:47:36.922Z,61.38
2022-11-15T22:51:39.015Z,60.89
2022-11-15T22:55:42.656Z,60.38
2022-11-15T22:59:42.875Z,59.96
2022-11-15T23:03:43.106Z,60.09
2022-11-15T23:07:43.656Z,60.34
2022-11-15T23:11:58.917Z,60.37
2022-11-15T23:16:19.937Z,60.40
2022-11-15T23:20:42.042Z,60.18
2022-11-15T23:24:41.110Z,60.32
2022-11-15T23:28:43.917Z,60.28
2022-11-15T23:32:56.554Z,60.20
2022-11-15T23:36:56.873Z,60.19
2022-11-15T23:40:58.083Z,60.99
2022-11-15T23:45:00.942Z,60.94
2022-11-15T23:49:01.375Z,60.61
2022-11-15T23:53:01.575Z,60.88
2022-11-15T23:57:01.773Z,61.14
